Burleigh, New Jersey
Current Conditions -  °F | °C
As of 2:15 PM on Monday 20 Oct 2014 (Local Time) from KWWD Reporting Station
Clear Clear  
Wind Chill: 63°   Ceiling: Unl
Heat Index: 63°   Visibility: 10mi
Dew Point: 37°   Wind: 12mph
Humidity: 39%   Direction: 190°S
Pressure: 30.05"   Gusts: NA
Location:  39.1108°N, 74.8241°W
Report Text: KWWD 201815Z AUTO 19010KT 10SM CLR 17/03 A3005 RMK AO1
Loading
Personal Weather Stations






























Interactive Weather Map
Tropical Storm Tracking
New forecast layout! Learn more

10-Day Weather Forecast

Advertisements
Track Severe Weather on mobile